Time;durP1;ratioP1;P1;durP2;ratioP2;P2;SDS_P1;SDS_P2;PMS_P1;PMS_P2;Temp;Humidity;BMP_temperature;BMP_pressure;BME280_temperature;BME280_humidity;BME280_pressure;Samples;Min_cycle;Max_cycle;Signal;HPM_P1;HPM_P2
2023/10/12 00:01:59;;;;;;;24.35;12.30;;;;;;;16.51;96.44;101149.34;4884577;29;20127;-83
2023/10/12 00:04:38;;;;;;;27.65;11.57;;;;;;;16.50;96.29;101147.63;4882399;29;20033;-83
2023/10/12 00:07:15;;;;;;;25.02;12.30;;;;;;;16.48;97.00;101144.13;4871063;29;20036;-83
2023/10/12 00:10:01;;;;;;;24.95;12.43;;;;;;;16.45;97.67;101153.16;4874833;29;20110;-83
2023/10/12 00:12:26;;;;;;;24.30;12.88;;;;;;;16.47;98.92;101163.78;4868879;29;20041;-83
2023/10/12 00:14:56;;;;;;;28.98;12.90;;;;;;;16.46;99.83;101162.91;4870308;29;20042;-83
2023/10/12 00:17:23;;;;;;;25.45;12.68;;;;;;;16.44;100.00;101163.91;4853754;29;20051;-85
2023/10/12 00:19:52;;;;;;;27.58;13.82;;;;;;;16.46;100.00;101167.38;4880448;29;20123;-84
2023/10/12 00:22:18;;;;;;;29.98;13.73;;;;;;;16.44;100.00;101169.25;4864710;29;20068;-84
2023/10/12 00:24:44;;;;;;;34.35;13.20;;;;;;;16.41;100.00;101169.38;4881962;29;20051;-84
2023/10/12 00:27:11;;;;;;;27.38;14.80;;;;;;;16.37;100.00;101154.38;4883904;29;20124;-83
2023/10/12 00:29:40;;;;;;;24.55;14.50;;;;;;;16.37;100.00;101170.44;4853300;29;20381;-84
2023/10/12 00:32:09;;;;;;;28.08;13.77;;;;;;;16.34;100.00;101177.66;4881701;29;20041;-84
2023/10/12 00:34:45;;;;;;;30.08;14.27;;;;;;;16.29;100.00;101170.75;4855835;29;20510;-84
2023/10/12 00:37:11;;;;;;;32.08;13.90;;;;;;;16.24;100.00;101164.72;4864273;29;20029;-84
2023/10/12 00:42:18;;;;;;;30.80;14.00;;;;;;;16.23;100.00;101185.22;4890622;29;20036;-84
2023/10/12 00:44:52;;;;;;;33.45;14.35;;;;;;;16.19;100.00;101186.28;4888161;29;20045;-84
2023/10/12 00:47:43;;;;;;;27.02;14.20;;;;;;;16.18;100.00;101197.03;4881554;29;20291;-84
2023/10/12 00:50:11;;;;;;;33.90;14.93;;;;;;;16.18;100.00;101211.25;4898761;29;20032;-85
2023/10/12 00:53:14;;;;;;;27.60;14.75;;;;;;;16.16;100.00;101204.25;4876007;29;20041;-84
2023/10/12 00:55:41;;;;;;;29.42;14.23;;;;;;;16.17;100.00;101206.88;4880998;29;20029;-84
2023/10/12 00:58:08;;;;;;;29.80;15.40;;;;;;;16.13;100.00;101208.75;4869305;29;20169;-84
2023/10/12 01:00:35;;;;;;;31.60;15.88;;;;;;;16.13;100.00;101213.25;4870137;29;20047;-85
2023/10/12 01:08:46;;;;;;;29.25;15.07;;;;;;;16.03;100.00;101204.72;4890063;29;20092;-84
2023/10/12 01:11:33;;;;;;;30.15;14.98;;;;;;;16.00;100.00;101204.84;4879905;29;20067;-85
2023/10/12 01:16:42;;;;;;;28.23;15.50;;;;;;;15.99;100.00;101196.88;4879631;29;20124;-85
2023/10/12 01:19:08;;;;;;;25.88;14.40;;;;;;;15.93;100.00;101195.31;4864262;29;20036;-84
2023/10/12 01:21:38;;;;;;;27.77;14.38;;;;;;;15.91;100.00;101206.06;4864907;29;20124;-85
2023/10/12 01:24:12;;;;;;;32.67;16.00;;;;;;;15.88;100.00;101216.88;4880899;29;20037;-86
2023/10/12 01:26:38;;;;;;;31.67;16.77;;;;;;;15.87;100.00;101217.81;4880163;29;20041;-85
2023/10/12 01:29:03;;;;;;;27.27;15.35;;;;;;;15.83;100.00;101213.50;4893439;29;20036;-86
2023/10/12 01:31:30;;;;;;;30.42;15.43;;;;;;;15.82;100.00;101205.53;4863261;29;20043;-85
2023/10/12 01:33:57;;;;;;;32.28;15.70;;;;;;;15.83;100.00;101218.84;4867728;29;20124;-85
2023/10/12 01:36:30;;;;;;;31.30;15.52;;;;;;;15.82;100.00;101205.53;4878552;29;20532;-85
2023/10/12 01:39:18;;;;;;;27.55;14.38;;;;;;;15.81;100.00;101182.44;4881686;29;20044;-85
2023/10/12 01:41:42;;;;;;;24.48;14.50;;;;;;;15.78;100.00;101167.41;4869756;29;20385;-86
2023/10/12 01:44:11;;;;;;;31.17;14.57;;;;;;;15.74;100.00;101167.56;4867584;29;20078;-85
2023/10/12 01:46:41;;;;;;;29.55;15.65;;;;;;;15.74;100.00;101159.56;4863965;29;20029;-86
2023/10/12 01:49:07;;;;;;;25.77;14.43;;;;;;;15.74;100.00;101152.41;4893121;29;20048;-85
2023/10/12 01:51:36;;;;;;;28.58;15.93;;;;;;;15.71;100.00;101149.00;4867369;29;20044;-85
2023/10/12 01:54:05;;;;;;;25.02;14.73;;;;;;;15.71;100.00;101165.91;4859709;29;20044;-86
2023/10/12 01:56:34;;;;;;;27.02;14.68;;;;;;;15.76;100.00;101158.56;4872027;29;20068;-85
2023/10/12 01:59:05;;;;;;;22.70;13.57;;;;;;;15.71;100.00;101157.88;4871212;29;20044;-86
2023/10/12 02:01:33;;;;;;;26.50;14.98;;;;;;;15.70;100.00;101153.44;4862944;29;20037;-87
2023/10/12 02:04:06;;;;;;;26.73;15.25;;;;;;;15.65;100.00;101147.38;4888766;29;20492;-86
2023/10/12 02:06:33;;;;;;;31.95;15.98;;;;;;;15.67;100.00;101156.22;4888538;29;20075;-86
2023/10/12 02:09:10;;;;;;;26.83;15.77;;;;;;;15.65;100.00;101172.31;4878226;29;20073;-86
2023/10/12 02:11:43;;;;;;;28.48;15.10;;;;;;;15.66;100.00;101178.53;4882736;29;20120;-85
2023/10/12 02:14:11;;;;;;;29.55;15.23;;;;;;;15.64;100.00;101173.22;4897681;29;20052;-86
2023/10/12 02:16:39;;;;;;;36.03;17.05;;;;;;;15.64;100.00;101165.22;4865636;29;20077;-86
2023/10/12 02:19:07;;;;;;;33.78;17.30;;;;;;;15.64;100.00;101172.34;4865520;29;20043;-86
2023/10/12 02:21:37;;;;;;;34.67;16.65;;;;;;;15.62;100.00;101167.06;4881104;29;20132;-86
2023/10/12 02:29:05;;;;;;;28.60;16.77;;;;;;;15.57;100.00;101187.72;4867719;29;20064;-86
2023/10/12 02:31:31;;;;;;;31.35;18.75;;;;;;;15.55;100.00;101199.38;4886730;29;20044;-85
2023/10/12 02:34:00;;;;;;;32.25;18.05;;;;;;;15.56;100.00;101182.47;4869981;29;20041;-85
2023/10/12 02:36:26;;;;;;;30.95;18.40;;;;;;;15.53;100.00;101180.78;4863766;29;20044;-86
2023/10/12 02:38:58;;;;;;;32.63;17.70;;;;;;;15.49;100.00;101155.97;4852202;29;20165;-86
2023/10/12 02:41:24;;;;;;;31.13;17.90;;;;;;;15.44;100.00;101138.41;4871871;29;20563;-86
2023/10/12 02:43:54;;;;;;;31.83;18.08;;;;;;;15.42;100.00;101142.94;4864220;29;20075;-86
2023/10/12 02:46:23;;;;;;;38.33;19.85;;;;;;;15.38;100.00;101150.19;4885815;29;20404;-86
2023/10/12 02:48:51;;;;;;;30.20;18.95;;;;;;;15.38;100.00;101143.97;4880397;29;20062;-86
2023/10/12 02:51:22;;;;;;;27.83;16.88;;;;;;;15.42;100.00;101146.47;4897377;29;20055;-86
2023/10/12 02:53:48;;;;;;;34.95;18.67;;;;;;;15.43;100.00;101152.66;4864553;29;20049;-86
2023/10/12 02:56:17;;;;;;;35.33;19.83;;;;;;;15.40;100.00;101139.44;4890705;29;20033;-87
2023/10/12 02:58:45;;;;;;;32.53;19.13;;;;;;;15.42;100.00;101149.13;4878455;29;20449;-86
2023/10/12 03:01:14;;;;;;;36.72;19.05;;;;;;;15.43;100.00;101150.88;4875304;29;20034;-86
2023/10/12 03:03:48;;;;;;;33.22;18.70;;;;;;;15.41;100.00;101147.41;4878620;29;20064;-86
2023/10/12 03:06:21;;;;;;;27.02;17.77;;;;;;;15.38;100.00;101122.59;4893915;29;20524;-86
2023/10/12 03:09:03;;;;;;;36.03;19.33;;;;;;;15.36;100.00;101108.47;4871243;29;20184;-86
2023/10/12 03:11:31;;;;;;;29.35;18.30;;;;;;;15.33;100.00;101108.56;4893398;29;20135;-87
2023/10/12 03:14:00;;;;;;;29.05;18.13;;;;;;;15.32;100.00;101112.19;4873870;29;20037;-86
2023/10/12 03:16:33;;;;;;;30.13;18.52;;;;;;;15.34;100.00;101139.69;4869065;29;20039;-86
2023/10/12 03:19:00;;;;;;;32.05;19.13;;;;;;;15.29;100.00;101137.19;4852231;29;20041;-86
2023/10/12 03:21:33;;;;;;;34.05;19.08;;;;;;;15.28;100.00;101138.09;4877350;29;20096;-86
2023/10/12 03:24:02;;;;;;;31.23;19.17;;;;;;;15.27;100.00;101139.03;4866764;29;20068;-86
2023/10/12 03:26:29;;;;;;;30.40;19.17;;;;;;;15.24;100.00;101140.00;4869006;29;20041;-85
2023/10/12 03:29:18;;;;;;;35.72;20.67;;;;;;;15.21;100.00;101139.25;4891318;29;20051;-86
2023/10/12 03:34:35;;;;;;;39.70;20.85;;;;;;;15.13;100.00;101147.50;4869185;29;20404;-86
2023/10/12 03:37:03;;;;;;;32.30;20.50;;;;;;;15.10;100.00;101149.44;4846986;29;20589;-86
2023/10/12 03:48:03;;;;;;;28.58;17.63;;;;;;;15.02;100.00;101157.72;4899009;29;20095;-85
2023/10/12 03:50:33;;;;;;;27.42;18.45;;;;;;;15.00;100.00;101168.41;4901966;29;20064;-85
2023/10/12 03:52:59;;;;;;;29.83;18.13;;;;;;;15.00;100.00;101164.88;4877757;29;20041;-86
2023/10/12 03:55:27;;;;;;;27.85;17.95;;;;;;;14.99;100.00;101166.69;4891039;29;20037;-86
2023/10/12 03:58:14;;;;;;;33.33;18.38;;;;;;;15.03;100.00;101172.78;4854692;29;20045;-86
2023/10/12 04:00:47;;;;;;;33.13;18.23;;;;;;;15.00;100.00;101178.22;4896703;29;20458;-85
2023/10/12 04:03:18;;;;;;;30.75;17.52;;;;;;;14.98;100.00;101174.72;4865575;29;20041;-85
2023/10/12 04:05:50;;;;;;;;;;;;;;;15.02;100.00;101179.91;4890725;29;20225;-84
2023/10/12 04:18:32;;;;;;;27.42;16.52;;;;;;;14.93;100.00;101179.34;4861282;29;20530;-83
2023/10/12 04:21:04;;;;;;;28.00;15.75;;;;;;;14.93;100.00;101187.34;4861157;29;20041;-84
2023/10/12 04:23:48;;;;;;;24.38;15.98;;;;;;;14.91;100.00;101184.75;4863167;29;20051;-85
2023/10/12 04:28:50;;;;;;;23.30;14.55;;;;;;;14.87;100.00;101168.91;4894265;29;20424;-86
2023/10/12 04:31:34;;;;;;;23.77;14.32;;;;;;;14.86;100.00;101167.16;4873125;29;20043;-84
2023/10/12 04:36:48;;;;;;;23.55;16.13;;;;;;;14.82;100.00;101185.06;4890860;29;20103;-84
2023/10/12 04:39:16;;;;;;;32.33;14.65;;;;;;;14.83;100.00;101194.81;4872117;29;20037;-85
2023/10/12 04:41:54;;;;;;;25.27;15.05;;;;;;;14.84;100.00;101184.09;4875052;29;20068;-84
2023/10/12 04:46:59;;;;;;;26.23;15.93;;;;;;;14.86;100.00;101191.16;4899474;29;20438;-84
2023/10/12 04:57:27;;;;;;;23.75;15.82;;;;;;;14.81;100.00;101204.63;4898376;29;20418;-84
2023/10/12 05:02:57;;;;;;;26.02;15.70;;;;;;;14.81;100.00;101204.63;4885635;29;20382;-85
2023/10/12 05:07:57;;;;;;;29.95;15.75;;;;;;;14.87;100.00;101208.91;4896808;29;20019;-84
2023/10/12 05:10:31;;;;;;;26.83;15.50;;;;;;;14.84;100.00;101223.22;4888915;29;20084;-84
2023/10/12 05:13:03;;;;;;;22.27;15.57;;;;;;;14.83;100.00;101225.00;4870071;29;20520;-84
2023/10/12 05:18:18;;;;;;;23.38;15.10;;;;;;;14.86;100.00;101228.50;4875407;29;20078;-84
2023/10/12 05:20:44;;;;;;;29.17;14.68;;;;;;;14.86;100.00;101223.16;4899189;29;20138;-84
2023/10/12 05:23:11;;;;;;;25.83;15.20;;;;;;;14.89;100.00;101225.75;4867065;29;20051;-84
2023/10/12 05:28:21;;;;;;;26.35;16.17;;;;;;;14.82;100.00;101223.25;4898546;29;20071;-83
2023/10/12 05:30:55;;;;;;;27.05;17.30;;;;;;;14.86;100.00;101231.16;4888552;29;20029;-83
2023/10/12 05:35:59;;;;;;;23.83;15.25;;;;;;;14.83;100.00;101229.47;4884231;29;20063;-83
2023/10/12 05:38:37;;;;;;;26.55;15.43;;;;;;;14.84;100.00;101244.56;4898544;29;20040;-84
2023/10/12 05:41:10;;;;;;;24.20;15.65;;;;;;;14.85;100.00;101235.63;4876302;29;20056;-84
2023/10/12 05:43:41;;;;;;;22.55;14.88;;;;;;;14.84;100.00;101234.75;4879912;29;20037;-84
2023/10/12 05:46:13;;;;;;;24.58;14.20;;;;;;;14.82;100.00;101239.25;4885282;29;20072;-84
2023/10/12 05:48:46;;;;;;;26.58;15.00;;;;;;;14.84;100.00;101231.22;4886282;29;20061;-84
2023/10/12 05:51:21;;;;;;;22.50;14.35;;;;;;;14.82;100.00;101247.25;4896835;29;20041;-84
2023/10/12 05:54:23;;;;;;;23.17;13.98;;;;;;;14.81;100.00;101250.88;4872904;29;20048;-84
2023/10/12 05:56:39;;;;;;;22.20;14.40;;;;;;;14.82;100.00;101262.41;4883680;29;20453;-84
2023/10/12 05:59:09;;;;;;;23.63;13.77;;;;;;;14.81;100.00;101261.53;4870975;29;20084;-85
2023/10/12 06:01:36;;;;;;;22.08;13.65;;;;;;;14.80;100.00;101258.91;4874146;29;20341;-85
2023/10/12 06:04:05;;;;;;;22.98;13.55;;;;;;;14.79;100.00;101259.84;4869020;29;20078;-85
2023/10/12 06:06:36;;;;;;;18.43;12.90;;;;;;;14.78;100.00;101272.25;4892474;29;20464;-85
2023/10/12 06:09:15;;;;;;;21.70;12.77;;;;;;;14.80;100.00;101256.22;4868349;29;20411;-85
2023/10/12 06:11:46;;;;;;;23.83;13.73;;;;;;;14.80;100.00;101265.09;4875589;29;20128;-85
2023/10/12 06:14:20;;;;;;;21.42;11.93;;;;;;;14.84;100.00;101268.56;4847409;29;20041;-84
2023/10/12 06:16:47;;;;;;;22.08;12.25;;;;;;;14.85;100.00;101270.28;4862348;29;20481;-85
2023/10/12 06:19:25;;;;;;;26.50;12.60;;;;;;;14.82;100.00;101271.25;4887236;29;20068;-85
2023/10/12 06:21:52;;;;;;;20.15;12.80;;;;;;;14.82;100.00;101281.91;4868113;29;20041;-85
2023/10/12 06:24:21;;;;;;;26.50;11.70;;;;;;;14.82;100.00;101287.25;4898341;29;20044;-85
2023/10/12 06:26:48;;;;;;;22.88;12.27;;;;;;;14.81;100.00;101271.28;4881143;29;20496;-84
2023/10/12 06:29:24;;;;;;;20.33;11.77;;;;;;;14.80;100.00;101273.09;4862756;29;20036;-83
2023/10/12 06:31:52;;;;;;;18.17;11.75;;;;;;;14.82;100.00;101276.59;4879136;29;20119;-84
2023/10/12 06:34:21;;;;;;;20.45;11.27;;;;;;;14.80;100.00;101275.75;4877753;29;20109;-84
2023/10/12 06:36:46;;;;;;;22.08;12.63;;;;;;;14.81;100.00;101273.97;4874872;29;20073;-84
2023/10/12 06:44:25;;;;;;;23.98;11.93;;;;;;;14.82;100.00;101286.38;4894957;29;20041;-83
2023/10/12 06:46:54;;;;;;;18.55;11.85;;;;;;;14.82;100.00;101291.72;4892783;29;20118;-84
2023/10/12 06:49:29;;;;;;;22.20;12.98;;;;;;;14.80;100.00;101291.75;4892933;29;20417;-84
2023/10/12 06:52:04;;;;;;;22.55;12.35;;;;;;;14.78;100.00;101288.25;4870030;29;20133;-84
2023/10/12 06:54:39;;;;;;;20.25;11.70;;;;;;;14.77;100.00;101297.19;4859913;29;20555;-84
2023/10/12 07:02:30;;;;;;;22.40;12.73;;;;;;;14.83;100.00;101299.66;4873498;29;20033;-84
2023/10/12 07:05:01;;;;;;;19.48;12.10;;;;;;;14.86;100.00;101303.16;4846349;29;20076;-84
2023/10/12 07:07:30;;;;;;;21.30;12.20;;;;;;;14.86;100.00;101300.47;4872319;29;20101;-84
2023/10/12 07:12:45;;;;;;;;;;;;;;;14.92;100.00;101314.50;4897395;29;20127;-84
2023/10/12 07:15:25;;;;;;;26.13;12.35;;;;;;;14.86;100.00;101322.72;4867295;29;20367;-84
2023/10/12 07:17:51;;;;;;;24.27;12.25;;;;;;;14.86;100.00;101317.38;4890531;29;20040;-84
2023/10/12 07:23:10;;;;;;;22.90;13.35;;;;;;;14.84;100.00;101319.22;4889076;29;20111;-83
2023/10/12 07:25:36;;;;;;;26.00;14.07;;;;;;;14.83;100.00;101326.31;4862473;29;20048;-84
2023/10/12 07:28:02;;;;;;;22.75;12.05;;;;;;;14.83;100.00;101322.78;4878334;29;20395;-85
2023/10/12 07:30:33;;;;;;;22.65;13.18;;;;;;;14.82;100.00;101332.59;4865376;29;20049;-84
2023/10/12 07:33:04;;;;;;;25.05;12.38;;;;;;;14.84;100.00;101330.75;4886295;29;20044;-84
2023/10/12 07:35:38;;;;;;;25.13;13.10;;;;;;;14.86;100.00;101343.13;4877772;29;20160;-84
2023/10/12 07:38:12;;;;;;;19.30;12.85;;;;;;;14.86;100.00;101337.81;4861516;29;20052;-84
2023/10/12 07:40:51;;;;;;;23.00;12.65;;;;;;;14.86;100.00;101337.81;4858312;29;20524;-84
2023/10/12 07:43:18;;;;;;;24.05;12.30;;;;;;;14.87;100.00;101342.25;4854245;29;20045;-85
2023/10/12 07:45:50;;;;;;;27.60;12.85;;;;;;;14.89;100.00;101340.41;4831481;29;20059;-85
2023/10/12 07:48:31;;;;;;;20.60;12.40;;;;;;;14.94;100.00;101342.00;4859383;29;20482;-85
2023/10/12 07:51:19;;;;;;;21.38;12.18;;;;;;;14.91;100.00;101335.88;4879035;29;20127;-85
2023/10/12 07:54:31;;;;;;;21.10;11.88;;;;;;;14.91;100.00;101336.75;4883450;29;20507;-85
2023/10/12 07:56:40;;;;;;;;;;;;;;;14.98;100.00;101348.09;4872804;29;20120;-86
2023/10/12 07:59:13;;;;;;;25.35;11.85;;;;;;;14.96;100.00;101350.81;4898303;29;19923;-86
2023/10/12 08:01:39;;;;;;;21.10;13.10;;;;;;;14.95;100.00;101346.38;4893463;29;20041;-86
2023/10/12 08:04:28;;;;;;;20.52;12.50;;;;;;;14.94;100.00;101351.78;4895223;29;20523;-85
2023/10/12 08:06:54;;;;;;;20.33;11.60;;;;;;;14.97;100.00;101349.03;4872433;29;20041;-87
2023/10/12 08:11:51;;;;;;;25.13;12.73;;;;;;;14.95;100.00;101350.84;4887543;29;20556;-87
2023/10/12 08:22:29;;;;;;;24.58;12.05;;;;;;;15.02;100.00;101349.75;4857055;29;20556;-88
2023/10/12 08:25:04;;;;;;;23.40;12.95;;;;;;;15.04;100.00;101362.09;4868835;29;20050;-87
2023/10/12 08:27:43;;;;;;;26.25;12.55;;;;;;;15.03;100.00;101354.13;4868182;29;20437;-87
2023/10/12 08:30:12;;;;;;;21.92;12.43;;;;;;;15.05;100.00;101358.50;4894160;29;20044;-88
2023/10/12 08:32:42;;;;;;;29.33;14.43;;;;;;;15.10;100.00;101355.69;4887246;29;20056;-87
2023/10/12 08:37:43;;;;;;;26.92;12.05;;;;;;;15.15;100.00;101371.56;4885889;29;20041;-86
2023/10/12 08:40:19;;;;;;;18.33;11.68;;;;;;;15.19;100.00;101373.22;4872312;29;20096;-86
2023/10/12 08:42:58;;;;;;;26.65;12.82;;;;;;;15.21;100.00;101366.03;4862417;29;20049;-86
2023/10/12 08:45:26;;;;;;;24.10;13.48;;;;;;;15.23;100.00;101373.06;4858288;29;20045;-86
2023/10/12 08:47:54;;;;;;;24.80;12.45;;;;;;;15.22;100.00;101376.63;4877441;29;20045;-86
2023/10/12 08:53:07;;;;;;;24.92;12.35;;;;;;;15.27;100.00;101380.03;4883516;29;20480;-86
2023/10/12 08:55:36;;;;;;;24.90;12.65;;;;;;;15.29;100.00;101382.66;4887199;29;20087;-86
2023/10/12 08:58:14;;;;;;;22.95;12.70;;;;;;;15.31;100.00;101378.16;4900330;29;20064;-86
2023/10/12 09:03:27;;;;;;;21.25;12.80;;;;;;;15.35;100.00;101361.09;4870227;29;20037;-87
2023/10/12 09:05:58;;;;;;;25.10;12.98;;;;;;;15.37;100.00;101348.56;4880097;29;20037;-89
2023/10/12 09:13:35;;;;;;;22.40;13.82;;;;;;;15.44;100.00;101352.78;4885776;29;20459;-88
2023/10/12 09:16:03;;;;;;;20.83;12.80;;;;;;;15.46;100.00;101358.94;4880593;29;20446;-87
2023/10/12 09:18:33;;;;;;;20.83;13.23;;;;;;;15.46;100.00;101368.75;4881869;29;20043;-89
2023/10/12 09:31:48;;;;;;;25.10;14.50;;;;;;;15.61;100.00;101373.56;4871990;29;20041;-86
2023/10/12 09:36:38;;;;;;;25.40;12.75;;;;;;;15.71;100.00;101367.94;4880423;29;20033;-86
2023/10/12 09:39:12;;;;;;;26.55;14.10;;;;;;;15.71;100.00;101363.47;4883463;29;20057;-86
2023/10/12 09:41:39;;;;;;;23.33;13.93;;;;;;;15.75;100.00;101354.44;4890422;29;20104;-87
2023/10/12 09:44:11;;;;;;;25.85;13.07;;;;;;;15.78;100.00;101351.66;4898529;29;20050;-87
2023/10/12 09:46:46;;;;;;;25.08;13.55;;;;;;;15.83;100.00;101351.50;4889213;29;20041;-87
2023/10/12 09:49:22;;;;;;;21.05;13.52;;;;;;;15.80;100.00;101348.91;4862275;29;20412;-87
2023/10/12 09:51:59;;;;;;;19.38;13.45;;;;;;;15.87;100.00;101351.34;4889493;29;20176;-87
2023/10/12 09:55:07;;;;;;;21.52;13.27;;;;;;;15.88;100.00;101347.72;4872051;29;20192;-86
2023/10/12 09:57:36;;;;;;;19.40;12.82;;;;;;;15.93;100.00;101339.56;4897287;29;20405;-87
2023/10/12 10:02:55;;;;;;;20.38;12.60;;;;;;;15.98;100.00;101329.56;4850426;29;20071;-86
2023/10/12 10:05:29;;;;;;;21.92;12.90;;;;;;;16.01;100.00;101331.25;4888909;29;20388;-87
2023/10/12 10:08:04;;;;;;;21.75;11.93;;;;;;;15.98;100.00;101324.22;4894950;29;20508;-87
2023/10/12 10:10:36;;;;;;;20.58;12.10;;;;;;;15.99;100.00;101335.78;4881569;29;20100;-85
2023/10/12 10:13:14;;;;;;;27.50;13.65;;;;;;;15.93;100.00;101342.22;4898281;29;20041;-87
2023/10/12 10:15:56;;;;;;;16.50;11.65;;;;;;;15.90;100.00;101329.84;4873347;29;20059;-86
2023/10/12 10:18:42;;;;;;;29.35;12.82;;;;;;;15.86;100.00;101330.88;4865918;29;20405;-86
2023/10/12 10:21:08;;;;;;;17.13;11.75;;;;;;;15.87;100.00;101326.41;4887719;29;20044;-83
2023/10/12 10:23:37;;;;;;;23.98;11.77;;;;;;;15.85;100.00;101322.91;4892641;29;20072;-86
2023/10/12 10:26:38;;;;;;;22.30;11.75;;;;;;;15.84;100.00;101318.50;4897526;29;20048;-86
2023/10/12 10:29:05;;;;;;;18.05;10.70;;;;;;;15.84;100.00;101318.50;4883915;29;20496;-86
2023/10/12 10:31:36;;;;;;;15.65;10.50;;;;;;;15.87;100.00;101321.97;4855074;29;20088;-85
2023/10/12 10:34:08;;;;;;;22.48;11.27;;;;;;;15.88;100.00;101323.69;4888685;29;20039;-86
2023/10/12 10:36:34;;;;;;;15.32;10.98;;;;;;;15.90;100.00;101313.81;4897922;29;20064;-86
2023/10/12 10:41:47;;;;;;;;;;;;;;;16.00;100.00;101316.13;4898471;29;20100;-83
2023/10/12 10:44:23;;;;;;;16.63;11.43;;;;;;;16.00;100.00;101311.69;4876631;29;19920;-83
2023/10/12 10:46:54;;;;;;;22.15;12.48;;;;;;;16.04;100.00;101307.97;4828339;29;20046;-84
2023/10/12 10:49:21;;;;;;;21.23;13.55;;;;;;;16.06;100.00;101310.59;4858264;29;20053;-85
2023/10/12 10:51:48;;;;;;;22.25;13.68;;;;;;;16.14;100.00;101308.50;4878470;29;20041;-84
2023/10/12 10:54:18;;;;;;;20.38;13.13;;;;;;;16.19;100.00;101301.16;4880811;29;20040;-84
2023/10/12 10:56:53;;;;;;;24.08;13.52;;;;;;;16.26;100.00;101299.16;4888874;29;20337;-84
2023/10/12 10:59:19;;;;;;;22.42;12.90;;;;;;;16.30;100.00;101290.97;4867526;29;20033;-84
2023/10/12 11:01:48;;;;;;;24.75;13.57;;;;;;;16.40;100.00;101301.31;4882240;29;20499;-84
2023/10/12 11:04:19;;;;;;;20.63;13.10;;;;;;;16.47;100.00;101306.34;4872799;29;20105;-83
2023/10/12 11:06:47;;;;;;;27.77;13.50;;;;;;;16.47;100.00;101298.31;4874062;29;20089;-84
2023/10/12 11:09:16;;;;;;;16.83;11.50;;;;;;;16.50;100.00;101300.00;4897036;29;20056;-84
2023/10/12 11:11:53;;;;;;;21.50;12.00;;;;;;;16.53;100.00;101299.88;4888260;29;20068;-84
2023/10/12 11:14:22;;;;;;;19.40;10.77;;;;;;;16.48;100.00;101294.72;4887332;29;20036;-84
2023/10/12 11:16:48;;;;;;;21.08;11.60;;;;;;;16.50;100.00;101291.97;4893653;29;20043;-84
2023/10/12 11:19:14;;;;;;;21.00;10.52;;;;;;;16.49;100.00;101288.44;4889314;29;20120;-84
2023/10/12 11:21:51;;;;;;;17.98;10.40;;;;;;;16.52;100.00;101292.81;4891293;29;20480;-84
2023/10/12 11:24:17;;;;;;;18.83;10.38;;;;;;;16.52;100.00;101287.44;4868882;29;20045;-83
2023/10/12 11:26:51;;;;;;;25.73;10.57;;;;;;;16.57;100.00;101296.16;4883707;29;20485;-83
2023/10/12 11:29:17;;;;;;;20.50;10.80;;;;;;;16.56;100.00;101294.41;4866120;29;20068;-84
2023/10/12 11:31:46;;;;;;;20.00;10.10;;;;;;;16.55;100.00;101298.03;4890327;29;20031;-84
2023/10/12 11:34:23;;;;;;;22.38;11.27;;;;;;;16.50;100.00;101290.19;4883621;29;20540;-83
2023/10/12 11:36:57;;;;;;;20.45;11.23;;;;;;;16.54;100.00;101286.47;4885530;29;20037;-83
2023/10/12 11:39:28;;;;;;;20.75;11.30;;;;;;;16.54;100.00;101281.13;4869162;29;20100;-83
2023/10/12 11:42:04;;;;;;;21.15;11.60;;;;;;;16.58;100.00;101283.66;4850837;29;20053;-83
2023/10/12 11:44:43;;;;;;;17.52;10.65;;;;;;;16.60;100.00;101280.00;4874604;29;20044;-84
2023/10/12 11:47:14;;;;;;;21.55;11.57;;;;;;;16.59;100.00;101280.91;4900430;29;20045;-84
2023/10/12 11:49:55;;;;;;;18.27;10.63;;;;;;;16.64;100.00;101281.63;4887917;29;20060;-85
2023/10/12 11:52:32;;;;;;;18.85;11.20;;;;;;;16.65;100.00;101280.66;4859864;29;20392;-84
2023/10/12 11:55:07;;;;;;;18.90;10.57;;;;;;;16.66;100.00;101279.72;4892564;29;20109;-84
2023/10/12 11:57:35;;;;;;;20.50;9.85;;;;;;;16.64;100.00;101267.34;4896274;29;20539;-83
2023/10/12 12:00:20;;;;;;;23.20;11.35;;;;;;;16.60;100.00;101266.63;4876047;29;20495;-77
2023/10/12 12:02:46;;;;;;;16.73;10.55;;;;;;;16.60;100.00;101268.44;4883770;29;20047;-77
2023/10/12 12:05:12;;;;;;;19.80;10.60;;;;;;;16.65;100.00;101272.66;4867816;29;20049;-77
2023/10/12 12:07:37;;;;;;;18.20;10.48;;;;;;;16.65;100.00;101278.00;4900000;29;20040;-77
2023/10/12 12:10:07;;;;;;;16.15;9.77;;;;;;;16.67;100.00;101284.16;4899796;29;20496;-77
2023/10/12 12:12:38;;;;;;;18.98;10.65;;;;;;;16.65;100.00;101285.16;4900255;29;20040;-77
2023/10/12 12:15:04;;;;;;;;;;;;;;;16.69;100.00;101274.28;4881440;29;20132;-77
2023/10/12 12:17:29;;;;;;;16.48;9.95;;;;;;;16.63;100.00;101274.50;4888567;29;20462;-77
2023/10/12 12:19:55;;;;;;;24.20;9.88;;;;;;;16.67;100.00;101265.44;4870115;29;20097;-77
2023/10/12 12:22:23;;;;;;;14.82;9.05;;;;;;;16.69;100.00;101260.91;4886914;29;20131;-77
2023/10/12 12:24:49;;;;;;;16.15;9.23;;;;;;;16.67;100.00;101260.09;4899688;29;20067;-77
2023/10/12 12:29:59;;;;;;;15.73;9.02;;;;;;;16.67;100.00;101237.84;4892811;29;20055;-77
2023/10/12 12:32:27;;;;;;;18.55;9.38;;;;;;;16.64;100.00;101230.81;4899105;29;20528;-77
2023/10/12 12:34:54;;;;;;;17.75;9.02;;;;;;;16.59;100.00;101243.47;4866090;29;20045;-77
2023/10/12 12:37:20;;;;;;;16.38;8.90;;;;;;;16.57;100.00;101240.00;4880137;29;20043;-77
2023/10/12 12:40:14;;;;;;;18.25;8.70;;;;;;;16.53;100.00;101249.94;4874337;29;20048;-77
2023/10/12 12:42:36;;;;;;;16.73;9.10;;;;;;;16.51;100.00;101248.25;4880464;29;20120;-77
2023/10/12 12:45:03;;;;;;;15.95;8.90;;;;;;;16.49;100.00;101263.50;4847906;29;20125;-77
2023/10/12 12:47:32;;;;;;;16.17;9.65;;;;;;;16.48;100.00;101251.94;4881137;29;20108;-80
2023/10/12 12:50:03;;;;;;;14.05;8.15;;;;;;;16.49;100.00;101251.03;4864298;29;20116;-80
2023/10/12 12:52:29;;;;;;;16.75;9.05;;;;;;;16.51;100.00;101248.25;4864121;29;20523;-80
2023/10/12 12:54:55;;;;;;;15.77;8.82;;;;;;;16.47;100.00;101242.19;4872998;29;20052;-79
2023/10/12 12:57:23;;;;;;;16.58;9.25;;;;;;;16.50;100.00;101234.03;4874888;29;20041;-78
2023/10/12 12:59:48;;;;;;;18.77;8.77;;;;;;;16.49;100.00;101226.97;4899427;29;20045;-79
2023/10/12 13:02:16;;;;;;;16.63;8.98;;;;;;;16.51;100.00;101246.47;4871071;29;20120;-78
2023/10/12 13:04:42;;;;;;;16.23;8.68;;;;;;;16.54;100.00;101242.78;4897958;29;20063;-78
2023/10/12 13:07:12;;;;;;;16.63;9.52;;;;;;;16.55;100.00;101242.75;4899169;29;20080;-78
2023/10/12 13:09:40;;;;;;;15.27;9.50;;;;;;;16.52;100.00;101244.69;4899141;29;20448;-78
2023/10/12 13:12:06;;;;;;;16.80;9.23;;;;;;;16.53;100.00;101236.56;4898910;29;20115;-78
2023/10/12 13:14:32;;;;;;;15.13;8.70;;;;;;;16.55;100.00;101234.72;4899009;29;20116;-78
2023/10/12 13:16:58;;;;;;;24.13;9.13;;;;;;;16.55;100.00;101232.03;4882706;29;20209;-78
2023/10/12 13:19:24;;;;;;;16.30;9.10;;;;;;;16.52;100.00;101234.84;4889701;29;20105;-78
2023/10/12 13:21:50;;;;;;;16.52;9.10;;;;;;;16.47;100.00;101230.63;4876376;29;20068;-78
2023/10/12 13:24:16;;;;;;;14.38;8.35;;;;;;;16.44;100.00;101226.25;4878702;29;20045;-78
2023/10/12 13:26:44;;;;;;;18.63;8.82;;;;;;;16.44;100.00;101230.72;4863442;29;20052;-78
2023/10/12 13:29:13;;;;;;;17.08;9.38;;;;;;;16.44;100.00;101241.41;4863538;29;20556;-78
2023/10/12 13:31:39;;;;;;;18.30;9.13;;;;;;;16.40;100.00;101231.81;4875259;29;20059;-78